KESF/ESF METAR and TAF weather

Enter ICAO airport designator
Station Type Date Time Source
KESF METAR 2020/04/04 19:53 UTC NOAA

KESF 041953Z AUTO 05004KT 10SM OVC070 22/16 A2999 RMK AO2 SLP154 T02170156


Station Type Date Time Source
KESF Decoded METAR 2020/04/04 19:53 UTC NOAA

ALEXANDRIA ESLER RGNL AIRPORT , LA, United States (KESF) 31-24N 092-18W 28M
Apr 04, 2020 - 03:53 PM EDT / 2020.04.04 1953 UTC
Wind: from the NE (050 degrees) at 5 MPH (4 KT):0
Visibility: 10 mile(s):0
Sky conditions: overcast
Temperature: 71.1 F (21.7 C)
Dew Point: 60.1 F (15.6 C)
Relative Humidity: 68%
Pressure (altimeter): 29.99 in. Hg (1015 hPa)
ob: KESF 041953Z AUTO 05004KT 10SM OVC070 22/16 A2999 RMK AO2 SLP154 T02170156
cycle: 20

Station Type Date Time Source
KESF TAF UTC NOAA

Error!

Example: see airport list